Де-Кастри

Карта отелей и гостиниц, располагающихся рядом с аэропортом Де-Кастри :



Де-Кастри Хабаровский край 51° 28' 11.7588" N, 140° 46' 11.2188" E

Де-Кастри Хабаровский край 51° 28' 11.7588" N, 140° 46' 11.2188" E
Код аэродрома ИКАО: 
HDW8
Код аэродрома RU: 
ХДВ8
Координаты: 
N51.46993° E140.76978°
Превышение над уровнем моря : 
22
Основная полоса: 
Курс магнитный: 
Длина основной ВПП: 
Ширина основной ВПП: 
Покрытие основной ВПП: 
Твёрдое
Тип: 
Вертодром
Освещение ВПП: 
Нет
Класс аэродрома: 
Статус: 
Действующий
Принадлежность: 
ГА
Сайт: 
E-mail аэродрома: 
Страна: 
Россия
Регион: 
Хабаровский край
Город: 
Дополнительная информация: 

Найти трансфер

С помощью этой формы Вы можете найти трансфер из аэропорта Де-Кастри в город, аэропорт или вокзал:

Карта места

Javascript is required to view this map.

Погода в аэропортах:

Авиационная погода в Платове

Регион: 
Погода METAR: 
URRP 210400Z 07008MPS 9999 -RASN BKN004 01/00 Q1019 R05/290052 TEMPO 0300 FG RMK QBB120 QFE759/1013
Время наблюдения: 
2020-02-21T04:00:00Z
Температура C: 
1.0
Точка росы: 
0.0
Направление ветра: 
70
Скорость ветра: 
16
Метеорологическая видимость: 
6.21
Явления погоды: 
-RA -SN
Условия полета: 
LIFR
Аэропорт подробнее: 

Авиационная погода в Липецке

Регион: 
Погода METAR: 
UUOL 210400Z 21002MPS 5000 BR BKN047 M00/M01 Q1023 R15/090060 NOSIG
Время наблюдения: 
2020-02-21T04:00:00Z
Температура C: 
0.0
Точка росы: 
-1.0
Направление ветра: 
210
Скорость ветра: 
4
Метеорологическая видимость: 
3.11
Явления погоды: 
BR
Условия полета: 
MVFR
Аэропорт подробнее: 

Авиационная погода в Тулча

Регион: 
Погода METAR: 
LRTC 210400Z AUTO 36006KT 5000 BR BKN019/// 04/03 Q1021
Время наблюдения: 
2020-02-21T04:00:00Z
Температура C: 
4.0
Точка росы: 
3.0
Направление ветра: 
360
Скорость ветра: 
6
Метеорологическая видимость: 
3.11
Явления погоды: 
BR
Условия полета: 
MVFR

Авиационная погода в Нальчике

Регион: 
Погода METAR: 
URMN 210400Z 03001MPS 0300 -DZ FG VV001 01/01 Q1015 R24/////// NOSIG RMK QBB040 MT OBSC OBST OBSC QFE725
Время наблюдения: 
2020-02-21T04:00:00Z
Температура C: 
1.0
Точка росы: 
1.0
Направление ветра: 
30
Скорость ветра: 
2
Метеорологическая видимость: 
0.19
Явления погоды: 
-DZ FG
Условия полета: 
LIFR
Аэропорт подробнее: